createdAt,value
2019-06-26T00:00:38.167Z,1012.27
2019-06-26T00:01:38.157Z,1012.26
2019-06-26T00:02:38.146Z,1012.27
2019-06-26T00:03:38.160Z,1012.26
2019-06-26T00:04:38.122Z,1012.25
2019-06-26T00:05:38.119Z,1012.30
2019-06-26T00:06:38.117Z,1012.29
2019-06-26T00:07:38.087Z,1012.33
2019-06-26T00:08:38.083Z,1012.32
2019-06-26T00:09:38.093Z,1012.35
2019-06-26T00:10:38.057Z,1012.36
2019-06-26T00:11:38.045Z,1012.38
2019-06-26T00:12:38.028Z,1012.38
2019-06-26T00:13:38.055Z,1012.40
2019-06-26T00:14:39.042Z,1012.40
2019-06-26T00:15:37.994Z,1012.43
2019-06-26T00:16:37.990Z,1012.41
2019-06-26T00:17:37.980Z,1012.40
2019-06-26T00:18:37.967Z,1012.41
2019-06-26T00:19:37.979Z,1012.43
2019-06-26T00:20:37.953Z,1012.39
2019-06-26T00:21:37.949Z,1012.42
2019-06-26T00:22:37.919Z,1012.42
2019-06-26T00:23:37.911Z,1012.44
2019-06-26T00:24:37.929Z,1012.45
2019-06-26T00:25:37.917Z,1012.42
2019-06-26T00:26:37.905Z,1012.42
2019-06-26T00:27:37.866Z,1012.42
2019-06-26T00:28:37.862Z,1012.47
2019-06-26T00:29:37.867Z,1012.46
2019-06-26T00:30:37.836Z,1012.50
2019-06-26T00:31:37.832Z,1012.50
2019-06-26T00:32:37.809Z,1012.52
2019-06-26T00:33:37.810Z,1012.54
2019-06-26T00:34:37.882Z,1012.56
2019-06-26T00:35:37.794Z,1012.57
2019-06-26T00:36:37.771Z,1012.56
2019-06-26T00:37:37.760Z,1012.53
2019-06-26T00:38:40.091Z,1012.52
2019-06-26T00:39:37.788Z,1012.50
2019-06-26T00:40:37.721Z,1012.49
2019-06-26T00:41:37.723Z,1012.54
2019-06-26T00:42:37.703Z,1012.51
2019-06-26T00:43:42.381Z,1012.58
2019-06-26T00:44:38.710Z,1012.56
2019-06-26T00:45:37.671Z,1012.60
2019-06-26T00:46:37.656Z,1012.58
2019-06-26T00:47:37.648Z,1012.60
2019-06-26T00:48:37.648Z,1012.62
2019-06-26T00:49:37.663Z,1012.63
2019-06-26T00:50:37.634Z,1012.65
2019-06-26T00:51:37.613Z,1012.63
2019-06-26T00:52:37.594Z,1012.61
2019-06-26T00:53:37.655Z,1012.64
2019-06-26T00:54:37.624Z,1012.64
2019-06-26T00:55:37.574Z,1012.61
2019-06-26T00:56:37.556Z,1012.62
2019-06-26T00:57:37.595Z,1012.68
2019-06-26T00:58:37.536Z,1012.64
2019-06-26T00:59:37.551Z,1012.66
2019-06-26T01:00:37.509Z,1012.68
2019-06-26T01:01:37.505Z,1012.70
2019-06-26T01:02:37.566Z,1012.73
2019-06-26T01:03:37.487Z,1012.73
2019-06-26T01:04:37.502Z,1012.75
2019-06-26T01:05:37.469Z,1012.74
2019-06-26T01:06:37.463Z,1012.71
2019-06-26T01:07:37.438Z,1012.72
2019-06-26T01:08:37.424Z,1012.70
2019-06-26T01:09:37.416Z,1012.72
2019-06-26T01:10:37.438Z,1012.71
2019-06-26T01:11:37.396Z,1012.71
2019-06-26T01:12:37.382Z,1012.76
2019-06-26T01:13:37.378Z,1012.77
2019-06-26T01:14:37.360Z,1012.78
2019-06-26T01:15:37.369Z,1012.81
2019-06-26T01:16:37.335Z,1012.80
2019-06-26T01:17:37.383Z,1012.82
2019-06-26T01:18:37.335Z,1012.83
2019-06-26T01:19:37.316Z,1012.81
2019-06-26T01:20:37.325Z,1012.83
2019-06-26T01:21:37.296Z,1012.78
2019-06-26T01:22:37.335Z,1012.84
2019-06-26T01:23:37.263Z,1012.78
2019-06-26T01:24:37.252Z,1012.82
2019-06-26T01:25:37.270Z,1012.85
2019-06-26T01:26:37.228Z,1012.84
2019-06-26T01:27:37.227Z,1012.83
2019-06-26T01:28:37.209Z,1012.82
2019-06-26T01:29:37.229Z,1012.84
2019-06-26T01:30:37.220Z,1012.88
2019-06-26T01:31:37.190Z,1012.83
2019-06-26T01:32:37.169Z,1012.82
2019-06-26T01:33:37.153Z,1012.89
2019-06-26T01:34:37.143Z,1012.85
2019-06-26T01:35:37.163Z,1012.86
2019-06-26T01:36:37.132Z,1012.88
2019-06-26T01:37:37.144Z,1012.90
2019-06-26T01:38:37.101Z,1012.86
2019-06-26T01:39:37.103Z,1012.89
2019-06-26T01:40:37.127Z,1012.86
2019-06-26T01:41:37.078Z,1012.88
2019-06-26T01:42:37.063Z,1012.88
2019-06-26T01:43:37.048Z,1012.88
2019-06-26T01:44:37.038Z,1012.91
2019-06-26T01:45:37.103Z,1012.85
2019-06-26T01:46:37.043Z,1012.87
2019-06-26T01:47:37.011Z,1012.89
2019-06-26T01:48:36.998Z,1012.90
2019-06-26T01:49:36.986Z,1012.88
2019-06-26T01:50:36.975Z,1012.97
2019-06-26T01:51:37.009Z,1012.96
2019-06-26T01:52:36.955Z,1012.99
2019-06-26T01:53:36.942Z,1013.03
2019-06-26T01:54:36.982Z,1013.02
2019-06-26T01:55:36.920Z,1013.02
2019-06-26T01:56:36.944Z,1013.04
2019-06-26T01:57:36.901Z,1013.05
2019-06-26T01:58:36.900Z,1013.05
2019-06-26T01:59:36.892Z,1013.05
2019-06-26T02:00:36.873Z,1013.03
2019-06-26T02:01:36.886Z,1013.03
2019-06-26T02:02:36.849Z,1013.04
2019-06-26T02:03:36.838Z,1013.06
2019-06-26T02:04:36.834Z,1013.03
2019-06-26T02:05:36.823Z,1013.03
2019-06-26T02:06:36.836Z,1013.04
2019-06-26T02:07:36.795Z,1013.05
2019-06-26T02:08:36.787Z,1013.06
2019-06-26T02:09:36.779Z,1013.05
2019-06-26T02:10:36.773Z,1013.06
2019-06-26T02:11:36.789Z,1013.10
2019-06-26T02:12:36.744Z,1013.09
2019-06-26T02:13:36.735Z,1013.08
2019-06-26T02:14:36.725Z,1013.09
2019-06-26T02:15:36.710Z,1013.13
2019-06-26T02:16:36.748Z,1013.15
2019-06-26T02:17:36.808Z,1013.11
2019-06-26T02:18:36.676Z,1013.14
2019-06-26T02:19:36.676Z,1013.15
2019-06-26T02:20:36.655Z,1013.14
2019-06-26T02:21:36.670Z,1013.12
2019-06-26T02:22:36.639Z,1013.19
2019-06-26T02:23:36.663Z,1013.16
2019-06-26T02:24:36.608Z,1013.19
2019-06-26T02:25:36.611Z,1013.22
2019-06-26T02:26:36.695Z,1013.20
2019-06-26T02:27:36.635Z,1013.18
2019-06-26T02:28:36.567Z,1013.21
2019-06-26T02:29:36.557Z,1013.22
2019-06-26T02:30:36.548Z,1013.21
2019-06-26T02:31:36.533Z,1013.25
2019-06-26T02:32:36.747Z,1013.24
2019-06-26T02:33:36.514Z,1013.21
2019-06-26T02:34:36.506Z,1013.21
2019-06-26T02:35:36.490Z,1013.22
2019-06-26T02:36:36.488Z,1013.21
2019-06-26T02:37:36.496Z,1013.25
2019-06-26T02:38:36.470Z,1013.24
2019-06-26T02:39:36.457Z,1013.23
2019-06-26T02:40:36.477Z,1013.21
2019-06-26T02:41:36.430Z,1013.24
2019-06-26T02:42:36.540Z,1013.22
2019-06-26T02:43:36.400Z,1013.22
2019-06-26T02:44:52.026Z,1013.21
2019-06-26T02:45:37.380Z,1013.22
2019-06-26T02:46:36.375Z,1013.23
2019-06-26T02:47:36.383Z,1013.23
2019-06-26T02:48:36.346Z,1013.23
2019-06-26T02:49:36.340Z,1013.24
2019-06-26T02:50:36.352Z,1013.24
2019-06-26T02:51:36.322Z,1013.27
2019-06-26T02:52:36.334Z,1013.29
2019-06-26T02:53:36.290Z,1013.31
2019-06-26T02:54:36.287Z,1013.30
2019-06-26T02:55:36.297Z,1013.35
2019-06-26T02:56:36.261Z,1013.37
2019-06-26T02:57:36.271Z,1013.37
2019-06-26T02:58:36.242Z,1013.32
2019-06-26T02:59:36.221Z,1013.33
2019-06-26T03:00:36.213Z,1013.35
2019-06-26T03:01:36.207Z,1013.35
2019-06-26T03:02:36.234Z,1013.38
2019-06-26T03:03:36.182Z,1013.38
2019-06-26T03:04:36.182Z,1013.39
2019-06-26T03:05:36.156Z,1013.39
2019-06-26T03:06:36.150Z,1013.40
2019-06-26T03:07:36.161Z,1013.41
2019-06-26T03:08:36.125Z,1013.40
2019-06-26T03:09:36.133Z,1013.41
2019-06-26T03:10:36.103Z,1013.38
2019-06-26T03:11:36.089Z,1013.43
2019-06-26T03:12:36.111Z,1013.44
2019-06-26T03:13:36.096Z,1013.47
2019-06-26T03:14:36.061Z,1013.47
2019-06-26T03:15:36.057Z,1013.47
2019-06-26T03:16:36.035Z,1013.47
2019-06-26T03:17:36.023Z,1013.52
2019-06-26T03:18:36.040Z,1013.54
2019-06-26T03:19:36.009Z,1013.58
2019-06-26T03:20:35.990Z,1013.53
2019-06-26T03:21:35.979Z,1013.56
2019-06-26T03:22:35.982Z,1013.55
2019-06-26T03:23:35.988Z,1013.57
2019-06-26T03:24:35.946Z,1013.55
2019-06-26T03:25:35.982Z,1013.58
2019-06-26T03:26:35.927Z,1013.60
2019-06-26T03:27:35.916Z,1013.65
2019-06-26T03:28:35.929Z,1013.61
2019-06-26T03:29:35.889Z,1013.62
2019-06-26T03:30:35.887Z,1013.65
2019-06-26T03:31:35.898Z,1013.66
2019-06-26T03:32:35.871Z,1013.69
2019-06-26T03:33:35.874Z,1013.66
2019-06-26T03:34:35.861Z,1013.72
2019-06-26T03:35:35.856Z,1013.70
2019-06-26T03:36:35.810Z,1013.73
2019-06-26T03:37:35.807Z,1013.73
2019-06-26T03:38:35.797Z,1013.72
2019-06-26T03:39:35.783Z,1013.73
2019-06-26T03:40:35.802Z,1013.73
2019-06-26T03:41:35.760Z,1013.72
2019-06-26T03:42:35.747Z,1013.73
2019-06-26T03:43:35.899Z,1013.76
2019-06-26T03:44:35.760Z,1013.76
2019-06-26T03:45:35.712Z,1013.76
2019-06-26T03:46:35.701Z,1013.79
2019-06-26T03:47:35.690Z,1013.77
2019-06-26T03:48:35.679Z,1013.83
2019-06-26T03:49:35.793Z,1013.78
2019-06-26T03:50:35.695Z,1013.84
2019-06-26T03:51:35.653Z,1013.81
2019-06-26T03:52:35.632Z,1013.82
2019-06-26T03:53:35.627Z,1013.84
2019-06-26T03:54:35.640Z,1013.82
2019-06-26T03:55:35.616Z,1013.86
2019-06-26T03:56:35.589Z,1013.83
2019-06-26T03:57:35.582Z,1013.86
2019-06-26T03:58:35.565Z,1013.86
2019-06-26T03:59:35.584Z,1013.88
2019-06-26T04:00:35.543Z,1013.93
2019-06-26T04:01:35.536Z,1013.94
2019-06-26T04:02:35.519Z,1013.97
2019-06-26T04:03:35.513Z,1014.01
2019-06-26T04:04:35.530Z,1014.00
2019-06-26T04:05:35.734Z,1013.98
2019-06-26T04:06:35.485Z,1013.96
2019-06-26T04:07:35.467Z,1013.95
2019-06-26T04:08:35.454Z,1013.98
2019-06-26T04:09:35.443Z,1013.99
2019-06-26T04:10:35.454Z,1014.00
2019-06-26T04:11:35.426Z,1014.03
2019-06-26T04:12:35.413Z,1014.01
2019-06-26T04:13:35.399Z,1014.02
2019-06-26T04:14:35.420Z,1014.01
2019-06-26T04:15:42.168Z,1014.04
2019-06-26T04:16:36.374Z,1014.08
2019-06-26T04:17:35.362Z,1014.05
2019-06-26T04:18:35.349Z,1014.05
2019-06-26T04:19:35.330Z,1014.11
2019-06-26T04:20:35.346Z,1014.10
2019-06-26T04:21:35.310Z,1014.11
2019-06-26T04:22:35.297Z,1014.10
2019-06-26T04:23:35.287Z,1014.11
2019-06-26T04:24:35.288Z,1014.11
2019-06-26T04:25:38.075Z,1014.08
2019-06-26T04:26:35.258Z,1014.12
2019-06-26T04:27:35.256Z,1014.15
2019-06-26T04:28:35.243Z,1014.15
2019-06-26T04:29:35.220Z,1014.14
2019-06-26T04:30:35.242Z,1014.15
2019-06-26T04:31:35.204Z,1014.18
2019-06-26T04:32:35.191Z,1014.19
2019-06-26T04:33:35.183Z,1014.19
2019-06-26T04:34:35.196Z,1014.17
2019-06-26T04:35:35.185Z,1014.21
2019-06-26T04:36:35.152Z,1014.24
2019-06-26T04:37:35.143Z,1014.31
2019-06-26T04:38:35.126Z,1014.27
2019-06-26T04:39:35.113Z,1014.30
2019-06-26T04:40:35.101Z,1014.32
2019-06-26T04:41:35.120Z,1014.38
2019-06-26T04:42:35.114Z,1014.38
2019-06-26T04:43:35.076Z,1014.41
2019-06-26T04:44:35.067Z,1014.41
2019-06-26T04:45:35.096Z,1014.45
2019-06-26T04:46:35.063Z,1014.42
2019-06-26T04:47:35.027Z,1014.41
2019-06-26T04:48:35.015Z,1014.44
2019-06-26T04:49:35.010Z,1014.45
2019-06-26T04:50:34.988Z,1014.45
2019-06-26T04:51:35.019Z,1014.48
2019-06-26T04:52:34.966Z,1014.47
2019-06-26T04:53:34.956Z,1014.45
2019-06-26T04:54:34.943Z,1014.48
2019-06-26T04:55:34.938Z,1014.49
2019-06-26T04:56:34.960Z,1014.43
2019-06-26T04:57:34.915Z,1014.49
2019-06-26T04:58:34.918Z,1014.44
2019-06-26T04:59:34.888Z,1014.45
2019-06-26T05:00:34.885Z,1014.52
2019-06-26T05:01:34.894Z,1014.48
2019-06-26T05:02:34.854Z,1014.50
2019-06-26T05:03:34.906Z,1014.49
2019-06-26T05:04:34.843Z,1014.53
2019-06-26T05:05:39.535Z,1014.55
2019-06-26T05:06:35.844Z,1014.58
2019-06-26T05:07:34.833Z,1014.61
2019-06-26T05:08:34.792Z,1014.60
2019-06-26T05:09:34.782Z,1014.63
2019-06-26T05:10:34.770Z,1014.61
2019-06-26T05:11:34.759Z,1014.63
2019-06-26T05:12:34.778Z,1014.65
2019-06-26T05:13:34.839Z,1014.64
2019-06-26T05:14:34.732Z,1014.64
2019-06-26T05:15:34.714Z,1014.69
2019-06-26T05:16:34.741Z,1014.68
2019-06-26T05:17:34.736Z,1014.64
2019-06-26T05:18:34.691Z,1014.66
2019-06-26T05:19:34.670Z,1014.69
2019-06-26T05:20:34.676Z,1014.67
2019-06-26T05:21:34.650Z,1014.69
2019-06-26T05:22:34.680Z,1014.65
2019-06-26T05:23:34.633Z,1014.65
2019-06-26T05:24:34.618Z,1014.67
2019-06-26T05:25:34.616Z,1014.69
2019-06-26T05:26:34.595Z,1014.69
2019-06-26T05:27:34.613Z,1014.70
2019-06-26T05:28:34.570Z,1014.70
2019-06-26T05:29:34.562Z,1014.69
2019-06-26T05:30:34.551Z,1014.75
2019-06-26T05:31:34.553Z,1014.76
2019-06-26T05:32:34.552Z,1014.76
2019-06-26T05:33:34.517Z,1014.75
2019-06-26T05:34:34.513Z,1014.76
2019-06-26T05:35:35.311Z,1014.75
2019-06-26T05:36:34.480Z,1014.79
2019-06-26T05:37:34.607Z,1014.79
2019-06-26T05:38:34.457Z,1014.81
2019-06-26T05:39:34.456Z,1014.85
2019-06-26T05:40:34.434Z,1014.88
2019-06-26T05:41:34.448Z,1014.91
2019-06-26T05:42:34.446Z,1014.88
2019-06-26T05:43:34.422Z,1014.90
2019-06-26T05:44:34.392Z,1014.91
2019-06-26T05:45:34.393Z,1014.92
2019-06-26T05:46:34.380Z,1014.92
2019-06-26T05:47:34.407Z,1014.92
2019-06-26T05:48:34.348Z,1014.94
2019-06-26T05:49:34.346Z,1014.93
2019-06-26T05:50:34.335Z,1014.95
2019-06-26T05:51:34.317Z,1014.97
2019-06-26T05:52:34.344Z,1014.98
2019-06-26T05:53:34.301Z,1014.97
2019-06-26T05:54:34.286Z,1015.01
2019-06-26T05:55:34.269Z,1015.03
2019-06-26T05:56:34.269Z,1015.01
2019-06-26T05:57:34.260Z,1015.04
2019-06-26T05:58:34.277Z,1015.00
2019-06-26T05:59:34.223Z,1015.00
2019-06-26T06:00:34.241Z,1015.02
2019-06-26T06:01:34.205Z,1015.03
2019-06-26T06:02:34.244Z,1015.02
2019-06-26T06:03:34.208Z,1015.07
2019-06-26T06:04:34.176Z,1015.08
2019-06-26T06:05:34.183Z,1015.11
2019-06-26T06:06:41.803Z,1015.11
2019-06-26T06:07:35.135Z,1015.08
2019-06-26T06:08:34.154Z,1015.06
2019-06-26T06:09:34.119Z,1015.10
2019-06-26T06:10:34.108Z,1015.13
2019-06-26T06:11:34.119Z,1015.08
2019-06-26T06:12:34.090Z,1015.09
2019-06-26T06:13:34.218Z,1015.12
2019-06-26T06:14:34.062Z,1015.13
2019-06-26T06:15:34.064Z,1015.12
2019-06-26T06:16:46.750Z,1015.14
2019-06-26T06:17:35.025Z,1015.16
2019-06-26T06:18:34.057Z,1015.12
2019-06-26T06:19:34.005Z,1015.16
2019-06-26T06:20:34.002Z,1015.11
2019-06-26T06:21:33.989Z,1015.18
2019-06-26T06:22:33.981Z,1015.19
2019-06-26T06:23:33.992Z,1015.15
2019-06-26T06:24:33.950Z,1015.15
2019-06-26T06:25:33.949Z,1015.18
2019-06-26T06:26:33.931Z,1015.22
2019-06-26T06:27:33.958Z,1015.24
2019-06-26T06:28:33.951Z,1015.21
2019-06-26T06:29:33.892Z,1015.28
2019-06-26T06:30:33.883Z,1015.24
2019-06-26T06:31:33.874Z,1015.23
2019-06-26T06:32:33.860Z,1015.24
2019-06-26T06:33:33.874Z,1015.25
2019-06-26T06:34:33.863Z,1015.24
2019-06-26T06:35:33.841Z,1015.24
2019-06-26T06:36:33.819Z,1015.25
2019-06-26T06:37:33.809Z,1015.23
2019-06-26T06:38:33.797Z,1015.25
2019-06-26T06:39:33.822Z,1015.28
2019-06-26T06:40:33.774Z,1015.29
2019-06-26T06:41:33.781Z,1015.28
2019-06-26T06:42:33.763Z,1015.30
2019-06-26T06:43:33.765Z,1015.28
2019-06-26T06:44:33.753Z,1015.29
2019-06-26T06:45:33.715Z,1015.27
2019-06-26T06:46:33.706Z,1015.29
2019-06-26T06:47:33.698Z,1015.33
2019-06-26T06:48:33.685Z,1015.36
2019-06-26T06:49:33.733Z,1015.33
2019-06-26T06:50:33.662Z,1015.32
2019-06-26T06:51:33.654Z,1015.34
2019-06-26T06:52:33.655Z,1015.34
2019-06-26T06:53:33.640Z,1015.35
2019-06-26T06:54:33.725Z,1015.33
2019-06-26T06:55:33.609Z,1015.30
2019-06-26T06:56:33.610Z,1015.33
2019-06-26T06:57:33.588Z,1015.33
2019-06-26T06:58:33.589Z,1015.36
2019-06-26T06:59:33.601Z,1015.38
2019-06-26T07:00:33.581Z,1015.35
2019-06-26T07:01:33.543Z,1015.38
2019-06-26T07:02:33.577Z,1015.33
2019-06-26T07:03:33.527Z,1015.33
2019-06-26T07:04:33.555Z,1015.39
2019-06-26T07:05:33.524Z,1015.39
2019-06-26T07:06:33.525Z,1015.40
2019-06-26T07:07:33.473Z,1015.40
2019-06-26T07:08:33.474Z,1015.40
2019-06-26T07:09:33.472Z,1015.40
2019-06-26T07:10:33.490Z,1015.44
2019-06-26T07:11:33.430Z,1015.40
2019-06-26T07:12:33.699Z,1015.50
2019-06-26T07:13:33.539Z,1015.43
2019-06-26T07:14:33.398Z,1015.45
2019-06-26T07:15:33.412Z,1015.45
2019-06-26T07:16:33.377Z,1015.51
2019-06-26T07:17:33.370Z,1015.53
2019-06-26T07:18:33.365Z,1015.63
2019-06-26T07:19:33.341Z,1015.57
2019-06-26T07:20:33.357Z,1015.60
2019-06-26T07:21:33.337Z,1015.64
2019-06-26T07:22:33.314Z,1015.57
2019-06-26T07:23:33.385Z,1015.58
2019-06-26T07:24:33.300Z,1015.61
2019-06-26T07:25:33.300Z,1015.66
2019-06-26T07:26:33.262Z,1015.69
2019-06-26T07:27:33.261Z,1015.69
2019-06-26T07:28:33.252Z,1015.71
2019-06-26T07:29:33.226Z,1015.71
2019-06-26T07:30:33.273Z,1015.77
2019-06-26T07:31:33.206Z,1015.74
2019-06-26T07:32:33.197Z,1015.79
2019-06-26T07:33:33.193Z,1015.77
2019-06-26T07:34:33.173Z,1015.79
2019-06-26T07:35:33.191Z,1015.82
2019-06-26T07:36:33.174Z,1015.73
2019-06-26T07:37:33.136Z,1015.80
2019-06-26T07:38:33.133Z,1015.80
2019-06-26T07:39:33.124Z,1015.82
2019-06-26T07:40:33.134Z,1015.82
2019-06-26T07:41:33.130Z,1015.80
2019-06-26T07:42:33.088Z,1015.85
2019-06-26T07:43:33.085Z,1015.83
2019-06-26T07:44:33.062Z,1015.82
2019-06-26T07:45:33.064Z,1015.81
2019-06-26T07:46:33.069Z,1015.83
2019-06-26T07:47:43.134Z,1015.82
2019-06-26T07:48:34.027Z,1015.84
2019-06-26T07:49:33.010Z,1015.84
2019-06-26T07:50:33.001Z,1015.88
2019-06-26T07:51:33.131Z,1015.89
2019-06-26T07:52:32.974Z,1015.89
2019-06-26T07:53:32.963Z,1015.85
2019-06-26T07:54:32.953Z,1015.82
2019-06-26T07:55:32.941Z,1015.86
2019-06-26T07:56:32.956Z,1015.90
2019-06-26T07:57:32.948Z,1015.88
2019-06-26T07:58:32.904Z,1015.88
2019-06-26T07:59:33.003Z,1015.85
2019-06-26T08:00:32.890Z,1015.80
2019-06-26T08:01:32.909Z,1015.88
2019-06-26T08:02:32.864Z,1015.95
2019-06-26T08:03:32.859Z,1015.90
2019-06-26T08:04:32.844Z,1015.90
2019-06-26T08:05:32.833Z,1015.91
2019-06-26T08:06:32.848Z,1015.91
2019-06-26T08:07:32.828Z,1015.91
2019-06-26T08:08:32.799Z,1015.92
2019-06-26T08:09:32.790Z,1015.93
2019-06-26T08:10:32.785Z,1015.95
2019-06-26T08:11:32.794Z,1015.94
2019-06-26T08:12:32.760Z,1015.93
2019-06-26T08:13:32.742Z,1016.00
2019-06-26T08:14:32.735Z,1015.99
2019-06-26T08:15:32.746Z,1015.99
2019-06-26T08:16:34.507Z,1016.01
2019-06-26T08:17:32.705Z,1016.03
2019-06-26T08:18:32.704Z,1016.01
2019-06-26T08:19:32.691Z,1016.02
2019-06-26T08:20:32.672Z,1016.02
2019-06-26T08:21:32.692Z,1016.05
2019-06-26T08:22:32.673Z,1016.06
2019-06-26T08:23:32.639Z,1016.10
2019-06-26T08:24:32.650Z,1016.05
2019-06-26T08:25:32.617Z,1016.04
2019-06-26T08:26:32.640Z,1016.04
2019-06-26T08:27:32.614Z,1016.05
2019-06-26T08:28:32.582Z,1016.05
2019-06-26T08:29:32.570Z,1016.07
2019-06-26T08:30:32.563Z,1016.07
2019-06-26T08:31:32.554Z,1016.06
2019-06-26T08:32:32.569Z,1016.12
2019-06-26T08:33:32.533Z,1016.10
2019-06-26T08:34:32.523Z,1016.09
2019-06-26T08:35:32.528Z,1016.14
2019-06-26T08:36:32.497Z,1016.11
2019-06-26T08:37:32.529Z,1016.14
2019-06-26T08:38:32.479Z,1016.10
2019-06-26T08:39:32.476Z,1016.16
2019-06-26T08:40:32.463Z,1016.19
2019-06-26T08:41:32.450Z,1016.20
2019-06-26T08:42:32.479Z,1016.20
2019-06-26T08:43:32.447Z,1016.21
2019-06-26T08:44:32.410Z,1016.25
2019-06-26T08:45:32.406Z,1016.25
2019-06-26T08:46:32.414Z,1016.25
2019-06-26T08:47:32.434Z,1016.29
2019-06-26T08:48:39.355Z,1016.28
2019-06-26T08:49:33.355Z,1016.30
2019-06-26T08:50:32.350Z,1016.25
2019-06-26T08:51:32.345Z,1016.29
2019-06-26T08:52:32.379Z,1016.30
2019-06-26T08:53:32.340Z,1016.26
2019-06-26T08:54:32.331Z,1016.24
2019-06-26T08:55:32.307Z,1016.26
2019-06-26T08:56:32.287Z,1016.29
2019-06-26T08:57:32.289Z,1016.34
2019-06-26T08:58:32.296Z,1016.36
2019-06-26T08:59:32.254Z,1016.36
2019-06-26T09:00:32.251Z,1016.35
2019-06-26T09:01:32.246Z,1016.36
2019-06-26T09:02:32.222Z,1016.42
2019-06-26T09:03:32.239Z,1016.41
2019-06-26T09:04:32.201Z,1016.42
2019-06-26T09:05:46.927Z,1016.44
2019-06-26T09:06:33.205Z,1016.40
2019-06-26T09:07:32.191Z,1016.43
2019-06-26T09:08:32.333Z,1016.42
2019-06-26T09:09:32.154Z,1016.39
2019-06-26T09:10:32.139Z,1016.41
2019-06-26T09:11:32.127Z,1016.41
2019-06-26T09:12:32.130Z,1016.45
2019-06-26T09:13:32.134Z,1016.43
2019-06-26T09:14:32.101Z,1016.45
2019-06-26T09:15:32.080Z,1016.46
2019-06-26T09:16:32.077Z,1016.43
2019-06-26T09:17:32.064Z,1016.51
2019-06-26T09:18:35.943Z,1016.45
2019-06-26T09:19:32.050Z,1016.50
2019-06-26T09:20:32.053Z,1016.51
2019-06-26T09:21:32.023Z,1016.49
2019-06-26T09:22:32.013Z,1016.53
2019-06-26T09:23:32.026Z,1016.61
2019-06-26T09:24:31.986Z,1016.59
2019-06-26T09:25:31.975Z,1016.58
2019-06-26T09:26:31.968Z,1016.60
2019-06-26T09:27:31.955Z,1016.58
2019-06-26T09:28:31.966Z,1016.60
2019-06-26T09:29:31.944Z,1016.59
2019-06-26T09:30:31.919Z,1016.58
2019-06-26T09:31:31.921Z,1016.64
2019-06-26T09:32:31.901Z,1016.62
2019-06-26T09:33:32.615Z,1016.62
2019-06-26T09:34:31.886Z,1016.66
2019-06-26T09:35:31.861Z,1016.65
2019-06-26T09:36:31.854Z,1016.64
2019-06-26T09:37:31.839Z,1016.63
2019-06-26T09:38:31.861Z,1016.59
2019-06-26T09:39:31.817Z,1016.67
2019-06-26T09:40:32.230Z,1016.56
2019-06-26T09:41:31.795Z,1016.68
2019-06-26T09:42:31.795Z,1016.67
2019-06-26T09:43:31.790Z,1016.69
2019-06-26T09:44:31.789Z,1016.69
2019-06-26T09:45:31.775Z,1016.73
2019-06-26T09:46:31.745Z,1016.70
2019-06-26T09:47:31.745Z,1016.68
2019-06-26T09:48:31.716Z,1016.65
2019-06-26T09:49:31.758Z,1016.66
2019-06-26T09:50:31.722Z,1016.66
2019-06-26T09:51:31.689Z,1016.69
2019-06-26T09:52:31.673Z,1016.69
2019-06-26T09:53:45.968Z,1016.66
2019-06-26T09:54:32.705Z,1016.70
2019-06-26T09:55:31.639Z,1016.65
2019-06-26T09:56:31.653Z,1016.73
2019-06-26T09:57:31.618Z,1016.69
2019-06-26T09:58:31.631Z,1016.67
2019-06-26T09:59:31.717Z,1016.65
2019-06-26T10:00:31.610Z,1016.69
2019-06-26T10:01:31.589Z,1016.71
2019-06-26T10:02:31.564Z,1016.77
2019-06-26T10:03:31.555Z,1016.74
2019-06-26T10:04:31.580Z,1016.77
2019-06-26T10:05:31.541Z,1016.74
2019-06-26T10:06:31.527Z,1016.75
2019-06-26T10:07:31.515Z,1016.72
2019-06-26T10:08:31.521Z,1016.70
2019-06-26T10:09:31.496Z,1016.69
2019-06-26T10:10:31.531Z,1016.68
2019-06-26T10:11:31.465Z,1016.68
2019-06-26T10:12:31.461Z,1016.66
2019-06-26T10:13:31.451Z,1016.67
2019-06-26T10:14:46.537Z,1016.66
2019-06-26T10:15:32.503Z,1016.64
2019-06-26T10:16:31.416Z,1016.62
2019-06-26T10:17:31.408Z,1016.66
2019-06-26T10:18:31.396Z,1016.65
2019-06-26T10:19:31.391Z,1016.66
2019-06-26T10:20:31.405Z,1016.67
2019-06-26T10:21:31.356Z,1016.66
2019-06-26T10:22:31.363Z,1016.67
2019-06-26T10:23:31.336Z,1016.64
2019-06-26T10:24:31.321Z,1016.74
2019-06-26T10:25:31.364Z,1016.67
2019-06-26T10:26:32.463Z,1016.70
2019-06-26T10:27:31.294Z,1016.64
2019-06-26T10:28:31.281Z,1016.68
2019-06-26T10:29:31.276Z,1016.67
2019-06-26T10:30:31.285Z,1016.66
2019-06-26T10:31:31.268Z,1016.71
2019-06-26T10:32:31.249Z,1016.66
2019-06-26T10:33:31.269Z,1016.68
2019-06-26T10:34:31.213Z,1016.64
2019-06-26T10:35:31.212Z,1016.69
2019-06-26T10:36:31.217Z,1016.67
2019-06-26T10:37:31.176Z,1016.69
2019-06-26T10:38:31.171Z,1016.75
2019-06-26T10:39:31.165Z,1016.74
2019-06-26T10:40:31.179Z,1016.75
2019-06-26T10:41:31.146Z,1016.70
2019-06-26T10:42:31.148Z,1016.76
2019-06-26T10:43:31.116Z,1016.77
2019-06-26T10:44:31.164Z,1016.78
2019-06-26T10:45:31.169Z,1016.88
2019-06-26T10:46:31.112Z,1016.82
2019-06-26T10:47:31.486Z,1016.88
2019-06-26T10:48:31.056Z,1016.83
2019-06-26T10:49:31.039Z,1016.91
2019-06-26T10:50:31.061Z,1016.90
2019-06-26T10:51:31.053Z,1016.99
2019-06-26T10:52:31.016Z,1016.88
2019-06-26T10:53:31.010Z,1016.91
2019-06-26T10:54:30.987Z,1017.00
2019-06-26T10:55:30.982Z,1017.04
2019-06-26T10:56:31.000Z,1016.97
2019-06-26T10:57:30.973Z,1017.05
2019-06-26T10:58:30.946Z,1017.04
2019-06-26T10:59:30.932Z,1016.98
2019-06-26T11:00:30.942Z,1016.94
2019-06-26T11:01:30.934Z,1016.94
2019-06-26T11:02:30.912Z,1016.92
2019-06-26T11:03:30.890Z,1016.93
2019-06-26T11:04:30.872Z,1016.88
2019-06-26T11:05:30.875Z,1016.93
2019-06-26T11:06:30.997Z,1016.94
2019-06-26T11:07:30.880Z,1016.92
2019-06-26T11:08:30.832Z,1016.90
2019-06-26T11:09:30.822Z,1016.88
2019-06-26T11:10:30.823Z,1016.88
2019-06-26T11:11:30.801Z,1016.88
2019-06-26T11:12:30.835Z,1016.95
2019-06-26T11:13:30.786Z,1016.88
2019-06-26T11:14:30.789Z,1016.92
2019-06-26T11:15:30.782Z,1016.89
2019-06-26T11:16:30.832Z,1016.89
2019-06-26T11:17:30.759Z,1017.00
2019-06-26T11:18:30.745Z,1016.99
2019-06-26T11:19:43.220Z,1016.98
2019-06-26T11:20:31.707Z,1017.00
2019-06-26T11:21:30.692Z,1016.99
2019-06-26T11:22:30.717Z,1016.93
2019-06-26T11:23:30.670Z,1016.91
2019-06-26T11:24:30.716Z,1016.90
2019-06-26T11:25:30.653Z,1016.88
2019-06-26T11:26:30.635Z,1016.92
2019-06-26T11:27:30.659Z,1016.94
2019-06-26T11:28:30.618Z,1016.96
2019-06-26T11:29:30.599Z,1016.95
2019-06-26T11:30:30.591Z,1017.02
2019-06-26T11:32:31.725Z,1017.04
2019-06-26T11:33:30.578Z,1017.00
2019-06-26T11:34:30.579Z,1017.02
2019-06-26T11:35:30.587Z,1017.01
2019-06-26T11:36:30.536Z,1017.04
2019-06-26T11:37:30.548Z,1017.02
2019-06-26T11:38:30.534Z,1017.04
2019-06-26T11:39:30.495Z,1017.02
2019-06-26T11:40:30.489Z,1017.02
2019-06-26T11:41:30.467Z,1017.03
2019-06-26T11:42:32.808Z,1016.99
2019-06-26T11:43:30.447Z,1016.96
2019-06-26T11:44:30.435Z,1016.98
2019-06-26T11:45:30.429Z,1016.94
2019-06-26T11:46:32.432Z,1016.93
2019-06-26T11:47:30.463Z,1016.90
2019-06-26T11:48:30.414Z,1016.97
2019-06-26T11:49:30.385Z,1016.95
2019-06-26T11:50:30.372Z,1016.91
2019-06-26T11:51:30.354Z,1016.89
2019-06-26T11:52:30.375Z,1016.90
2019-06-26T11:53:30.369Z,1016.90
2019-06-26T11:55:31.465Z,1016.87
2019-06-26T11:56:30.306Z,1016.89
2019-06-26T11:57:30.299Z,1016.88
2019-06-26T11:58:30.299Z,1016.85
2019-06-26T11:59:30.268Z,1016.88
2019-06-26T12:00:30.888Z,1016.90
2019-06-26T12:01:30.243Z,1016.86
2019-06-26T12:02:30.232Z,1016.86
2019-06-26T12:03:30.256Z,1016.82
2019-06-26T12:04:30.209Z,1016.86
2019-06-26T12:05:30.203Z,1016.84
2019-06-26T12:06:30.190Z,1016.82
2019-06-26T12:07:30.219Z,1016.86